North Central West Virginia Airport Clarksburg US
ICAO: KCKB
IATA: CKB
Category: Medium
Scheduled Services: Yes

Elevation: 1217 ft
TransAlt. 18000 ft.

Airport Communications:
CLARKSBURG APP/DEP:119.6
ATIS:127.825
CTAF:126.7
GND:121.9
ARNG OPS:139.05
ELKINS RDO:112.6
CLARKSBURG TWR:126.7
UNICOM:123

KCKB Zoom In..

If you have problems with the map follow the link
https://www.worldairports.se/pages/airport.php?
ICAO=KCKB

Runways:

(A) RW 03 length 7800 ft width 150 ft
---- / hdg 31

(B) RW 21 length 7800 ft width 150 ft
ILS 109.30 / hdg 211

Location; KCKB
Day. 14 / Time. 20.53 Zulu
* Altimeter: 30.16
* Temperature: 11° c. 51.8°f.
* Wind from: 020° Speed 05 kn.
Dewpoint: 08° c.
Visibility: 9 Statute Miles.
Clouds: Broken 6500 ft.
Clouds: Overcast 8000 ft.
Conditions: Light Rain.

KCKB 142053Z 02005KT 9SM -RA BKN065 OVC080 11/08 A3016 RMK AO2 RAB12 SLP214 P0000 60002 T01060078 55007


Wind From 020°
Speed 05 kn.

 
 
jpsmedia.com for Web Design worldairports.se 2018   terms of use